createdAt,value
2023-04-17T00:01:43.983Z,100.00
2023-04-17T00:04:11.500Z,100.00
2023-04-17T00:06:45.094Z,100.00
2023-04-17T00:09:12.564Z,100.00
2023-04-17T00:11:39.570Z,100.00
2023-04-17T00:14:06.747Z,100.00
2023-04-17T00:16:33.640Z,100.00
2023-04-17T00:19:00.527Z,100.00
2023-04-17T00:21:29.846Z,100.00
2023-04-17T00:23:56.906Z,100.00
2023-04-17T00:26:24.200Z,100.00
2023-04-17T00:28:52.032Z,100.00
2023-04-17T00:31:19.001Z,100.00
2023-04-17T00:33:46.568Z,100.00
2023-04-17T00:36:15.525Z,100.00
2023-04-17T00:38:42.696Z,100.00
2023-04-17T00:41:09.814Z,100.00
2023-04-17T00:43:36.773Z,100.00
2023-04-17T00:46:04.646Z,100.00
2023-04-17T00:48:33.098Z,100.00
2023-04-17T00:51:03.507Z,100.00
2023-04-17T00:53:33.789Z,100.00
2023-04-17T00:56:01.569Z,100.00
2023-04-17T00:58:28.446Z,100.00
2023-04-17T01:00:55.343Z,100.00
2023-04-17T01:03:23.269Z,100.00
2023-04-17T01:05:51.775Z,100.00
2023-04-17T01:08:19.665Z,100.00
2023-04-17T01:10:47.348Z,100.00
2023-04-17T01:13:14.114Z,100.00
2023-04-17T01:15:42.993Z,100.00
2023-04-17T01:18:09.928Z,100.00
2023-04-17T01:20:37.739Z,100.00
2023-04-17T01:23:04.569Z,100.00
2023-04-17T01:25:31.474Z,100.00
2023-04-17T01:27:58.234Z,100.00
2023-04-17T01:30:26.778Z,100.00
2023-04-17T01:33:06.214Z,100.00
2023-04-17T01:35:33.006Z,100.00
2023-04-17T01:37:59.807Z,100.00
2023-04-17T01:40:26.566Z,100.00
2023-04-17T01:42:53.410Z,100.00
2023-04-17T01:45:21.185Z,100.00
2023-04-17T01:47:48.852Z,100.00
2023-04-17T01:50:15.746Z,100.00
2023-04-17T01:52:42.873Z,100.00
2023-04-17T01:55:09.936Z,100.00
2023-04-17T01:57:36.977Z,100.00
2023-04-17T02:00:07.946Z,100.00
2023-04-17T02:02:39.464Z,100.00
2023-04-17T02:05:06.955Z,100.00
2023-04-17T02:07:33.657Z,100.00
2023-04-17T02:10:00.366Z,100.00
2023-04-17T02:12:27.322Z,100.00
2023-04-17T02:14:54.245Z,100.00
2023-04-17T02:17:21.078Z,100.00
2023-04-17T02:19:47.877Z,100.00
2023-04-17T02:22:14.641Z,100.00
2023-04-17T02:24:41.336Z,100.00
2023-04-17T02:27:08.124Z,100.00
2023-04-17T02:29:35.476Z,100.00
2023-04-17T02:32:02.217Z,100.00
2023-04-17T02:34:30.172Z,100.00
2023-04-17T02:36:57.179Z,100.00
2023-04-17T02:39:24.606Z,100.00
2023-04-17T02:41:51.308Z,100.00
2023-04-17T02:44:18.178Z,100.00
2023-04-17T02:46:44.978Z,100.00
2023-04-17T02:49:12.995Z,100.00
2023-04-17T02:51:39.976Z,100.00
2023-04-17T02:54:06.766Z,100.00
2023-04-17T02:56:33.778Z,100.00
2023-04-17T02:59:00.610Z,100.00
2023-04-17T03:01:28.022Z,100.00
2023-04-17T03:03:55.133Z,100.00
2023-04-17T03:06:24.142Z,100.00
2023-04-17T03:08:51.658Z,100.00
2023-04-17T03:11:18.590Z,100.00
2023-04-17T03:13:45.618Z,100.00
2023-04-17T03:16:13.768Z,100.00
2023-04-17T03:18:41.752Z,100.00
2023-04-17T03:21:08.510Z,100.00
2023-04-17T03:23:35.795Z,100.00
2023-04-17T03:26:02.598Z,100.00
2023-04-17T03:28:32.507Z,100.00
2023-04-17T03:30:59.711Z,100.00
2023-04-17T03:33:27.217Z,100.00
2023-04-17T03:35:56.769Z,100.00
2023-04-17T03:38:23.479Z,100.00
2023-04-17T03:40:50.433Z,100.00
2023-04-17T03:43:17.252Z,100.00
2023-04-17T03:45:45.674Z,100.00
2023-04-17T03:48:13.084Z,100.00
2023-04-17T03:50:40.007Z,100.00
2023-04-17T03:53:06.822Z,100.00
2023-04-17T03:55:33.663Z,100.00
2023-04-17T03:58:02.591Z,100.00
2023-04-17T04:00:31.899Z,100.00
2023-04-17T04:03:04.935Z,100.00
2023-04-17T04:05:38.474Z,100.00
2023-04-17T04:08:07.075Z,100.00
2023-04-17T04:10:40.453Z,100.00
2023-04-17T04:13:07.311Z,100.00
2023-04-17T04:15:34.554Z,100.00
2023-04-17T04:18:05.795Z,100.00
2023-04-17T04:20:32.612Z,100.00
2023-04-17T04:23:10.950Z,100.00
2023-04-17T04:25:41.776Z,100.00
2023-04-17T04:28:23.452Z,100.00
2023-04-17T04:30:51.428Z,100.00
2023-04-17T04:33:21.026Z,100.00
2023-04-17T04:35:48.840Z,100.00
2023-04-17T04:38:17.265Z,100.00
2023-04-17T04:40:50.297Z,100.00
2023-04-17T04:43:17.911Z,100.00
2023-04-17T04:45:47.120Z,100.00
2023-04-17T04:48:14.052Z,100.00
2023-04-17T04:50:41.098Z,100.00
2023-04-17T04:53:07.807Z,100.00
2023-04-17T04:55:54.552Z,100.00
2023-04-17T04:58:21.601Z,100.00
2023-04-17T05:00:49.331Z,100.00
2023-04-17T05:03:29.495Z,100.00
2023-04-17T05:05:58.043Z,100.00
2023-04-17T05:08:30.756Z,100.00
2023-04-17T05:11:08.716Z,100.00
2023-04-17T05:13:35.768Z,100.00
2023-04-17T05:16:02.820Z,100.00
2023-04-17T05:18:30.292Z,100.00
2023-04-17T05:20:57.076Z,100.00
2023-04-17T05:23:26.241Z,100.00
2023-04-17T05:25:52.961Z,100.00
2023-04-17T05:28:20.302Z,100.00
2023-04-17T05:30:48.894Z,100.00
2023-04-17T05:33:21.633Z,100.00
2023-04-17T05:35:52.332Z,100.00
2023-04-17T05:38:21.411Z,100.00
2023-04-17T05:40:48.229Z,100.00
2023-04-17T05:43:16.685Z,100.00
2023-04-17T05:45:43.462Z,100.00
2023-04-17T05:48:11.015Z,100.00
2023-04-17T05:50:37.797Z,100.00
2023-04-17T05:53:06.195Z,100.00
2023-04-17T05:55:37.913Z,100.00
2023-04-17T05:58:22.622Z,100.00
2023-04-17T06:00:52.911Z,100.00
2023-04-17T06:03:21.158Z,100.00
2023-04-17T06:05:52.804Z,100.00
2023-04-17T06:08:20.931Z,100.00
2023-04-17T06:10:50.448Z,100.00
2023-04-17T06:13:17.521Z,100.00
2023-04-17T06:15:47.280Z,100.00
2023-04-17T06:18:16.188Z,100.00
2023-04-17T06:20:46.208Z,100.00
2023-04-17T06:23:13.802Z,100.00
2023-04-17T06:25:42.321Z,100.00
2023-04-17T06:28:10.877Z,100.00
2023-04-17T06:30:38.442Z,100.00
2023-04-17T06:33:07.148Z,100.00
2023-04-17T06:35:35.346Z,100.00
2023-04-17T06:38:12.631Z,100.00
2023-04-17T06:40:39.790Z,100.00
2023-04-17T06:43:10.277Z,100.00
2023-04-17T06:45:42.436Z,100.00
2023-04-17T06:48:09.731Z,100.00
2023-04-17T06:50:38.992Z,100.00
2023-04-17T06:53:06.567Z,100.00
2023-04-17T06:55:36.374Z,100.00
2023-04-17T06:58:05.003Z,100.00
2023-04-17T07:00:31.736Z,100.00
2023-04-17T07:02:58.630Z,100.00
2023-04-17T07:05:25.861Z,100.00
2023-04-17T07:07:52.597Z,100.00
2023-04-17T07:10:19.680Z,100.00
2023-04-17T07:12:47.246Z,100.00
2023-04-17T07:15:14.174Z,100.00
2023-04-17T07:17:41.040Z,100.00
2023-04-17T07:20:08.536Z,100.00
2023-04-17T07:22:35.596Z,100.00
2023-04-17T07:25:02.393Z,100.00
2023-04-17T07:27:29.150Z,100.00
2023-04-17T07:29:56.554Z,100.00
2023-04-17T07:32:26.334Z,100.00
2023-04-17T07:34:53.214Z,100.00
2023-04-17T07:37:20.167Z,100.00
2023-04-17T07:39:50.293Z,100.00
2023-04-17T07:42:17.142Z,100.00
2023-04-17T07:44:43.794Z,100.00
2023-04-17T07:47:10.810Z,100.00
2023-04-17T07:49:39.729Z,100.00
2023-04-17T07:52:06.701Z,100.00
2023-04-17T07:54:33.521Z,100.00
2023-04-17T07:57:03.620Z,100.00
2023-04-17T07:59:30.877Z,100.00
2023-04-17T08:01:58.326Z,100.00
2023-04-17T08:04:26.154Z,100.00
2023-04-17T08:06:53.012Z,100.00
2023-04-17T08:09:21.361Z,100.00
2023-04-17T08:11:56.898Z,100.00
2023-04-17T08:14:25.155Z,100.00
2023-04-17T08:16:52.226Z,100.00
2023-04-17T08:19:19.111Z,100.00
2023-04-17T08:21:49.865Z,100.00
2023-04-17T08:24:19.765Z,100.00
2023-04-17T08:26:47.746Z,100.00
2023-04-17T08:29:15.118Z,100.00
2023-04-17T08:31:42.700Z,100.00
2023-04-17T08:36:40.133Z,100.00
2023-04-17T08:39:08.782Z,100.00
2023-04-17T08:41:41.530Z,100.00
2023-04-17T08:44:08.629Z,100.00
2023-04-17T08:46:43.255Z,100.00
2023-04-17T08:49:10.520Z,100.00
2023-04-17T08:51:37.590Z,100.00
2023-04-17T08:54:05.083Z,100.00
2023-04-17T08:56:31.869Z,100.00
2023-04-17T08:59:03.257Z,100.00
2023-04-17T09:01:30.380Z,100.00
2023-04-17T09:04:03.189Z,100.00
2023-04-17T09:06:49.752Z,100.00
2023-04-17T09:09:19.028Z,100.00
2023-04-17T09:11:45.949Z,100.00
2023-04-17T09:14:31.593Z,100.00
2023-04-17T09:16:58.375Z,100.00
2023-04-17T09:19:25.308Z,100.00
2023-04-17T09:21:54.656Z,100.00
2023-04-17T09:24:34.761Z,100.00
2023-04-17T09:27:31.955Z,100.00
2023-04-17T09:30:03.937Z,100.00
2023-04-17T09:32:32.762Z,100.00
2023-04-17T09:35:01.652Z,100.00
2023-04-17T09:37:51.701Z,100.00
2023-04-17T09:40:21.739Z,100.00
2023-04-17T09:43:09.869Z,100.00
2023-04-17T09:45:41.703Z,100.00
2023-04-17T09:48:13.256Z,100.00
2023-04-17T09:50:40.541Z,100.00
2023-04-17T09:53:08.454Z,100.00
2023-04-17T09:55:38.218Z,100.00
2023-04-17T09:58:06.523Z,100.00
2023-04-17T10:00:33.451Z,100.00
2023-04-17T10:03:00.955Z,100.00
2023-04-17T10:05:30.271Z,100.00
2023-04-17T10:07:57.412Z,100.00
2023-04-17T10:10:33.856Z,100.00
2023-04-17T10:15:34.475Z,100.00
2023-04-17T10:18:25.529Z,100.00
2023-04-17T10:20:54.106Z,100.00
2023-04-17T10:23:27.965Z,100.00
2023-04-17T10:26:25.740Z,100.00
2023-04-17T10:28:54.324Z,100.00
2023-04-17T10:31:23.451Z,100.00
2023-04-17T10:33:51.720Z,100.00
2023-04-17T10:36:39.772Z,100.00
2023-04-17T10:39:18.226Z,100.00
2023-04-17T10:42:05.476Z,100.00
2023-04-17T10:44:36.026Z,100.00
2023-04-17T10:47:07.455Z,100.00
2023-04-17T10:49:48.822Z,100.00
2023-04-17T10:52:41.453Z,100.00
2023-04-17T10:55:09.746Z,100.00
2023-04-17T10:58:06.010Z,100.00
2023-04-17T11:00:36.899Z,100.00
2023-04-17T11:03:05.074Z,100.00
2023-04-17T11:05:32.753Z,100.00
2023-04-17T11:07:59.702Z,100.00
2023-04-17T11:10:27.676Z,100.00
2023-04-17T11:12:56.535Z,100.00
2023-04-17T11:15:37.299Z,100.00
2023-04-17T11:18:04.354Z,100.00
2023-04-17T11:20:33.235Z,100.00
2023-04-17T11:23:05.800Z,100.00
2023-04-17T11:25:35.735Z,100.00
2023-04-17T11:28:05.929Z,100.00
2023-04-17T11:30:42.296Z,100.00
2023-04-17T11:33:09.539Z,100.00
2023-04-17T11:35:40.936Z,100.00
2023-04-17T11:38:23.478Z,100.00
2023-04-17T11:40:54.720Z,100.00
2023-04-17T11:43:23.479Z,100.00
2023-04-17T11:45:54.071Z,100.00
2023-04-17T11:48:32.480Z,100.00
2023-04-17T11:51:03.771Z,100.00
2023-04-17T11:53:31.084Z,100.00
2023-04-17T11:56:16.321Z,100.00
2023-04-17T11:58:47.116Z,100.00
2023-04-17T12:01:13.923Z,100.00
2023-04-17T12:03:41.853Z,100.00
2023-04-17T12:06:11.856Z,100.00
2023-04-17T12:08:56.737Z,100.00
2023-04-17T12:11:26.323Z,100.00
2023-04-17T12:13:54.246Z,100.00
2023-04-17T12:16:21.810Z,100.00
2023-04-17T12:18:48.743Z,100.00
2023-04-17T12:21:15.620Z,100.00
2023-04-17T12:23:42.752Z,100.00
2023-04-17T12:26:09.893Z,100.00
2023-04-17T12:28:36.747Z,100.00
2023-04-17T12:31:04.749Z,100.00
2023-04-17T12:33:32.540Z,100.00
2023-04-17T12:36:01.373Z,100.00
2023-04-17T12:38:28.721Z,100.00
2023-04-17T12:40:55.576Z,100.00
2023-04-17T12:43:22.380Z,100.00
2023-04-17T12:45:49.251Z,100.00
2023-04-17T12:48:16.268Z,100.00
2023-04-17T12:50:44.370Z,100.00
2023-04-17T12:53:13.598Z,100.00
2023-04-17T12:55:41.612Z,100.00
2023-04-17T12:58:10.188Z,100.00
2023-04-17T13:00:38.087Z,100.00
2023-04-17T13:03:05.681Z,100.00
2023-04-17T13:05:32.875Z,100.00
2023-04-17T13:07:59.722Z,100.00
2023-04-17T13:10:26.956Z,100.00
2023-04-17T13:12:53.749Z,100.00
2023-04-17T13:15:20.644Z,100.00
2023-04-17T13:17:47.670Z,100.00
2023-04-17T13:20:14.583Z,100.00
2023-04-17T13:22:41.383Z,100.00
2023-04-17T13:25:08.912Z,100.00
2023-04-17T13:27:35.680Z,100.00
2023-04-17T13:30:02.484Z,100.00
2023-04-17T13:32:29.224Z,100.00
2023-04-17T13:34:58.064Z,100.00
2023-04-17T13:37:25.805Z,100.00
2023-04-17T13:39:52.877Z,100.00
2023-04-17T13:42:19.976Z,100.00
2023-04-17T13:44:47.035Z,100.00
2023-04-17T13:47:15.250Z,100.00
2023-04-17T13:49:42.183Z,100.00
2023-04-17T13:52:09.130Z,100.00
2023-04-17T13:54:35.944Z,100.00
2023-04-17T13:57:03.192Z,100.00
2023-04-17T13:59:30.784Z,100.00
2023-04-17T14:01:57.965Z,100.00
2023-04-17T14:04:24.996Z,100.00
2023-04-17T14:06:51.997Z,100.00
2023-04-17T14:09:19.065Z,99.85
2023-04-17T14:11:46.228Z,99.16
2023-04-17T14:14:13.109Z,100.00
2023-04-17T14:16:40.779Z,100.00
2023-04-17T14:19:13.951Z,100.00
2023-04-17T14:21:41.846Z,100.00
2023-04-17T14:24:09.034Z,98.41
2023-04-17T14:26:37.794Z,98.16
2023-04-17T14:29:04.737Z,95.00
2023-04-17T14:31:32.044Z,91.15
2023-04-17T14:33:58.811Z,88.75
2023-04-17T14:36:26.299Z,88.43
2023-04-17T14:38:54.357Z,88.90
2023-04-17T14:41:21.271Z,85.90
2023-04-17T14:43:48.192Z,84.16
2023-04-17T14:46:15.087Z,89.65
2023-04-17T14:51:15.268Z,91.77
2023-04-17T14:53:42.140Z,92.26
2023-04-17T14:56:09.445Z,91.09
2023-04-17T14:58:36.308Z,90.49
2023-04-17T15:01:03.935Z,87.82
2023-04-17T15:03:32.434Z,86.60
2023-04-17T15:06:01.548Z,85.66
2023-04-17T15:08:28.707Z,83.76
2023-04-17T15:10:55.873Z,72.08
2023-04-17T15:13:22.582Z,70.53
2023-04-17T15:15:49.432Z,69.85
2023-04-17T15:18:16.308Z,67.83
2023-04-17T15:20:43.404Z,70.25
2023-04-17T15:23:10.179Z,71.53
2023-04-17T15:25:37.090Z,72.54
2023-04-17T15:28:04.190Z,69.04
2023-04-17T15:30:30.988Z,71.55
2023-04-17T15:32:59.498Z,69.65
2023-04-17T15:35:26.296Z,74.46
2023-04-17T15:37:53.238Z,80.33
2023-04-17T15:40:21.155Z,81.79
2023-04-17T15:42:49.524Z,82.76
2023-04-17T15:45:20.590Z,84.11
2023-04-17T15:47:50.796Z,83.06
2023-04-17T15:50:19.203Z,80.33
2023-04-17T15:52:51.942Z,78.44
2023-04-17T15:55:42.266Z,81.66
2023-04-17T15:58:13.099Z,79.87
2023-04-17T16:00:42.769Z,77.33
2023-04-17T16:03:12.748Z,75.19
2023-04-17T16:05:45.623Z,75.97
2023-04-17T16:08:12.826Z,73.34
2023-04-17T16:10:42.588Z,73.72
2023-04-17T16:13:09.635Z,69.69
2023-04-17T16:15:42.419Z,71.15
2023-04-17T16:18:09.738Z,73.90
2023-04-17T16:20:36.586Z,71.29
2023-04-17T16:23:09.389Z,71.25
2023-04-17T16:25:36.123Z,68.52
2023-04-17T16:28:12.734Z,67.58
2023-04-17T16:30:45.239Z,66.28
2023-04-17T16:33:22.564Z,65.30
2023-04-17T16:35:52.349Z,63.57
2023-04-17T16:38:31.741Z,63.51
2023-04-17T16:41:05.244Z,63.57
2023-04-17T16:43:35.340Z,62.40
2023-04-17T16:46:10.864Z,61.75
2023-04-17T16:48:46.061Z,59.83
2023-04-17T16:51:12.951Z,59.87
2023-04-17T16:53:44.900Z,59.12
2023-04-17T16:56:11.744Z,58.82
2023-04-17T16:58:38.619Z,60.35
2023-04-17T17:01:05.712Z,58.74
2023-04-17T17:03:33.866Z,58.40
2023-04-17T17:06:03.492Z,58.94
2023-04-17T17:08:30.716Z,58.15
2023-04-17T17:10:57.462Z,58.21
2023-04-17T17:13:24.362Z,57.06
2023-04-17T17:15:51.234Z,56.21
2023-04-17T17:18:18.205Z,57.43
2023-04-17T17:20:45.065Z,57.09
2023-04-17T17:23:11.893Z,56.98
2023-04-17T17:25:39.427Z,56.73
2023-04-17T17:28:06.187Z,56.83
2023-04-17T17:30:33.280Z,56.38
2023-04-17T17:33:00.486Z,56.61
2023-04-17T17:35:28.491Z,56.32
2023-04-17T17:37:55.208Z,57.75
2023-04-17T17:40:21.996Z,57.67
2023-04-17T17:42:48.998Z,57.45
2023-04-17T17:45:15.928Z,58.13
2023-04-17T17:47:42.609Z,56.86
2023-04-17T17:50:18.472Z,57.19
2023-04-17T17:52:58.764Z,58.29
2023-04-17T17:55:47.160Z,58.11
2023-04-17T17:58:16.921Z,58.80
2023-04-17T18:00:50.986Z,57.82
2023-04-17T18:03:18.349Z,57.69
2023-04-17T18:05:49.398Z,58.59
2023-04-17T18:08:23.383Z,58.16
2023-04-17T18:10:52.120Z,57.75
2023-04-17T18:13:19.092Z,59.00
2023-04-17T18:15:46.245Z,58.58
2023-04-17T18:18:13.297Z,58.80
2023-04-17T18:20:40.484Z,59.08
2023-04-17T18:23:07.418Z,59.41
2023-04-17T18:25:36.054Z,59.98
2023-04-17T18:28:05.172Z,60.09
2023-04-17T18:30:32.180Z,61.38
2023-04-17T18:32:59.185Z,61.03
2023-04-17T18:35:31.020Z,63.84
2023-04-17T18:38:04.670Z,62.28
2023-04-17T18:40:31.812Z,61.81
2023-04-17T18:42:59.550Z,62.22
2023-04-17T18:45:26.457Z,61.44
2023-04-17T18:47:53.342Z,62.26
2023-04-17T18:50:20.538Z,62.91
2023-04-17T18:52:50.933Z,62.26
2023-04-17T18:55:18.433Z,63.88
2023-04-17T18:57:46.518Z,63.26
2023-04-17T19:00:16.788Z,63.02
2023-04-17T19:02:54.448Z,65.78
2023-04-17T19:05:21.857Z,65.02
2023-04-17T19:07:49.306Z,64.41
2023-04-17T19:10:19.722Z,65.39
2023-04-17T19:12:49.824Z,67.99
2023-04-17T19:15:17.743Z,66.11
2023-04-17T19:17:47.987Z,66.41
2023-04-17T19:20:16.844Z,66.27
2023-04-17T19:22:43.835Z,66.85
2023-04-17T19:25:16.818Z,68.70
2023-04-17T19:27:44.423Z,69.04
2023-04-17T19:30:15.171Z,69.49
2023-04-17T19:32:45.038Z,69.46
2023-04-17T19:35:12.060Z,68.73
2023-04-17T19:37:39.183Z,69.93
2023-04-17T19:40:21.407Z,69.79
2023-04-17T19:42:51.034Z,69.48
2023-04-17T19:45:18.187Z,69.09
2023-04-17T19:47:45.352Z,69.06
2023-04-17T19:50:12.405Z,71.00
2023-04-17T19:52:40.217Z,70.72
2023-04-17T19:55:09.334Z,70.78
2023-04-17T19:57:36.622Z,72.47
2023-04-17T20:00:04.030Z,74.76
2023-04-17T20:02:39.458Z,74.02
2023-04-17T20:05:07.115Z,73.23
2023-04-17T20:07:34.164Z,73.28
2023-04-17T20:10:02.163Z,71.93
2023-04-17T20:12:31.852Z,72.33
2023-04-17T20:15:00.267Z,73.23
2023-04-17T20:17:30.832Z,72.61
2023-04-17T20:20:03.861Z,74.21
2023-04-17T20:22:40.319Z,73.99
2023-04-17T20:25:08.182Z,72.23
2023-04-17T20:27:36.649Z,72.80
2023-04-17T20:30:04.098Z,73.85
2023-04-17T20:32:32.328Z,73.42
2023-04-17T20:35:07.054Z,74.91
2023-04-17T20:37:34.705Z,74.80
2023-04-17T20:40:02.001Z,73.94
2023-04-17T20:42:29.332Z,75.63
2023-04-17T20:44:56.292Z,76.49
2023-04-17T20:47:27.295Z,74.76
2023-04-17T20:50:12.424Z,75.43
2023-04-17T20:52:58.545Z,74.49
2023-04-17T20:55:25.591Z,75.74
2023-04-17T20:57:56.602Z,75.98
2023-04-17T21:00:23.413Z,76.15
2023-04-17T21:02:50.350Z,76.52
2023-04-17T21:05:17.315Z,76.36
2023-04-17T21:07:44.138Z,78.82
2023-04-17T21:10:10.996Z,78.88
2023-04-17T21:12:37.840Z,79.40
2023-04-17T21:15:04.932Z,79.72
2023-04-17T21:17:31.615Z,84.51
2023-04-17T21:19:58.567Z,85.56
2023-04-17T21:22:27.949Z,86.36
2023-04-17T21:24:54.916Z,87.81
2023-04-17T21:27:21.667Z,89.68
2023-04-17T21:29:48.609Z,91.91
2023-04-17T21:32:15.442Z,93.35
2023-04-17T21:34:42.248Z,96.27
2023-04-17T21:37:09.072Z,96.35
2023-04-17T21:39:35.923Z,98.21
2023-04-17T21:42:02.728Z,99.79
2023-04-17T21:44:29.450Z,100.00
2023-04-17T21:46:57.515Z,100.00
2023-04-17T21:49:24.369Z,100.00
2023-04-17T21:51:51.250Z,100.00
2023-04-17T21:54:17.924Z,100.00
2023-04-17T21:56:44.786Z,100.00
2023-04-17T21:59:15.098Z,100.00
2023-04-17T22:01:41.944Z,100.00
2023-04-17T22:04:08.806Z,100.00
2023-04-17T22:06:39.406Z,100.00
2023-04-17T22:09:06.249Z,100.00
2023-04-17T22:11:32.896Z,100.00
2023-04-17T22:13:59.684Z,100.00
2023-04-17T22:16:26.448Z,100.00
2023-04-17T22:18:53.240Z,100.00
2023-04-17T22:21:20.113Z,100.00
2023-04-17T22:23:46.764Z,100.00
2023-04-17T22:26:13.558Z,100.00
2023-04-17T22:28:40.316Z,100.00
2023-04-17T22:31:07.055Z,100.00
2023-04-17T22:33:33.790Z,100.00
2023-04-17T22:36:00.646Z,100.00
2023-04-17T22:38:29.273Z,100.00
2023-04-17T22:40:56.019Z,100.00
2023-04-17T22:43:22.675Z,100.00
2023-04-17T22:45:49.486Z,100.00
2023-04-17T22:48:16.228Z,100.00
2023-04-17T22:50:43.813Z,100.00
2023-04-17T22:53:10.689Z,100.00
2023-04-17T22:55:37.458Z,100.00
2023-04-17T22:58:04.449Z,100.00
2023-04-17T23:00:32.132Z,100.00
2023-04-17T23:02:58.984Z,100.00
2023-04-17T23:05:25.823Z,100.00
2023-04-17T23:07:52.646Z,100.00
2023-04-17T23:10:22.456Z,100.00
2023-04-17T23:12:49.273Z,100.00
2023-04-17T23:15:16.018Z,100.00
2023-04-17T23:17:42.846Z,100.00
2023-04-17T23:20:10.011Z,100.00
2023-04-17T23:22:36.806Z,100.00
2023-04-17T23:25:03.781Z,100.00
2023-04-17T23:27:30.978Z,100.00
2023-04-17T23:29:59.162Z,100.00
2023-04-17T23:32:25.966Z,100.00
2023-04-17T23:34:52.636Z,100.00
2023-04-17T23:37:19.586Z,100.00
2023-04-17T23:39:47.434Z,100.00
2023-04-17T23:42:14.462Z,100.00
2023-04-17T23:44:41.136Z,100.00
2023-04-17T23:47:08.919Z,100.00
2023-04-17T23:49:36.080Z,100.00
2023-04-17T23:52:02.953Z,100.00
2023-04-17T23:54:33.025Z,100.00
2023-04-17T23:57:00.207Z,100.00
2023-04-17T23:59:34.573Z,100.00
